New Preston, Connecticut
Current Conditions -  °F | °C
As of 5:52 PM on Wednesday 28 Jan 2015 (Local Time) from KOXC Reporting Station
Clear Clear  
Wind Chill: -12°   Ceiling: Unl
Heat Index: -5°   Visibility: 10mi
Dew Point: -16°   Wind: 14mph
Humidity: 43%   Direction: 350°N
Pressure: 30.08"   Gusts: 21mph
Location:  41.6879°N, 73.3378°W
Report Text: KOXC 282152Z 35012G18KT 10SM SKC M05/M16 A3008
Loading
Personal Weather Stations






























Interactive Weather Map New forecast layout! Learn more

10-Day Weather Forecast

Advertisements
Track Severe Weather on mobile